^^
Saratoga-Weather Station Historical Data
Daily Summary for September 8, 2020 Units:  Both    English   Metric
Daily Weekly Monthly Yearly Custom
  High: Low: Average:
Temperature: 60.8 °F /  16 °C 54 °F /  12.2 °C 57 °F /  13.9 °C
Dew Point: 50 °F /  10 °C 47.8 °F /  8.8 °C 48.6 °F /  9.2 °C
Humidity: 81% 63% 73%
Wind Speed: 6mph /  9.7km/h - 1.1mph /  1.7km/h
Wind Gust: 8mph /  12.9km/h - -
Wind- - WNW
Pressure: 30.1 in /  1017.6 hPa 30 in /  1015.9 hPa -
Precipitation: 0 in /  0.0 mm    
Historical Graphs
 
 
Tabular Data for September 8, 2020
Time Temperature Dew Point Pressure Wind Wind Speed Wind Gust Humidity Rainfall Rate (Hourly) solar
00:00 57.9 °F /  14.4 °C 48.6 °F /  9.2 °C 30.1in /  1017.6hPa Calm     71% 0in /  0.0mm 0 W/m2
00:05 57.7 °F /  14.3 °C 48.7 °F /  9.3 °C 30.1in /  1017.6hPa Calm     72% 0in /  0.0mm 0 W/m2
00:10 57.7 °F /  14.3 °C 48.7 °F /  9.3 °C 30in /  1017.3hPa Calm     72% 0in /  0.0mm 0 W/m2
00:15 57.6 °F /  14.2 °C 48.9 °F /  9.4 °C 30in /  1017.3hPa Calm     73% 0in /  0.0mm 0 W/m2
00:20 57.6 °F /  14.2 °C 48.9 °F /  9.4 °C 30in /  1017.3hPa Calm     73% 0in /  0.0mm 0 W/m2
00:25 57.4 °F /  14.1 °C 48.7 °F /  9.3 °C 30in /  1017.3hPa Calm     73% 0in /  0.0mm 0 W/m2
00:30 57.2 °F /  14 °C 48.6 °F /  9.2 °C 30in /  1017.3hPa Calm   1mph /  1.6km/h 73% 0in /  0.0mm 0 W/m2
00:35 57.2 °F /  14 °C 48.9 °F /  9.4 °C 30in /  1017.3hPa Calm     74% 0in /  0.0mm 0 W/m2
00:40 57 °F /  13.9 °C 48.7 °F /  9.3 °C 30in /  1017.3hPa Calm   1mph /  1.6km/h 74% 0in /  0.0mm 0 W/m2
00:45 57 °F /  13.9 °C 48.7 °F /  9.3 °C 30in /  1016.9hPa Calm     74% 0in /  0.0mm 0 W/m2
00:50 56.8 °F /  13.8 °C 48.6 °F /  9.2 °C 30in /  1017.3hPa Calm     74% 0in /  0.0mm 0 W/m2
00:55 56.8 °F /  13.8 °C 48.9 °F /  9.4 °C 30in /  1017.3hPa Calm     75% 0in /  0.0mm 0 W/m2
01:00 56.7 °F /  13.7 °C 48.7 °F /  9.3 °C 30in /  1017.3hPa Calm     75% 0in /  0.0mm 0 W/m2
01:05 56.5 °F /  13.6 °C 48.7 °F /  9.3 °C 30in /  1017.3hPa Calm     75% 0in /  0.0mm 0 W/m2
01:10 56.3 °F /  13.5 °C 48.9 °F /  9.4 °C 30in /  1017.3hPa Calm     76% 0in /  0.0mm 0 W/m2
01:15 56.1 °F /  13.4 °C 48.7 °F /  9.3 °C 30in /  1017.3hPa Calm     76% 0in /  0.0mm 0 W/m2
01:20 55.9 °F /  13.3 °C 48.6 °F /  9.2 °C 30in /  1017.3hPa Calm     76% 0in /  0.0mm 0 W/m2
01:25 55.9 °F /  13.3 °C 48.6 °F /  9.2 °C 30in /  1016.9hPa Calm   1mph /  1.6km/h 76% 0in /  0.0mm 0 W/m2
01:30 55.9 °F /  13.3 °C 48.6 °F /  9.2 °C 30in /  1016.9hPa Calm     76% 0in /  0.0mm 0 W/m2
01:36 55.9 °F /  13.3 °C 48.6 °F /  9.2 °C 30in /  1016.9hPa Calm     76% 0in /  0.0mm 0 W/m2
01:41 56.1 °F /  13.4 °C 48.7 °F /  9.3 °C 30in /  1016.9hPa Calm   1mph /  1.6km/h 76% 0in /  0.0mm 0 W/m2
01:46 56.3 °F /  13.5 °C 48.9 °F /  9.4 °C 30in /  1016.9hPa WNW 2mph /  3.2km/h 2mph /  3.2km/h 76% 0in /  0.0mm 0 W/m2
01:51 56.7 °F /  13.7 °C 48.7 °F /  9.3 °C 30in /  1016.9hPa West 2mph /  3.2km/h 2mph /  3.2km/h 75% 0in /  0.0mm 0 W/m2
01:56 57.2 °F /  14 °C 48.6 °F /  9.2 °C 30in /  1016.9hPa WNW 2mph /  3.2km/h 3mph /  4.8km/h 73% 0in /  0.0mm 0 W/m2
02:01 57.9 °F /  14.4 °C 48.9 °F /  9.4 °C 30in /  1016.9hPa Calm   2mph /  3.2km/h 72% 0in /  0.0mm 0 W/m2
02:06 58.6 °F /  14.8 °C 48.9 °F /  9.4 °C 30in /  1016.9hPa WNW 0.9mph /  1.4km/h 4mph /  6.4km/h 70% 0in /  0.0mm 0 W/m2
02:11 59.4 °F /  15.2 °C 49.1 °F /  9.5 °C 30in /  1016.9hPa NW 0.9mph /  1.4km/h 3mph /  4.8km/h 69% 0in /  0.0mm 0 W/m2
02:16 59.7 °F /  15.4 °C 48.7 °F /  9.3 °C 30in /  1016.9hPa WNW 0.9mph /  1.4km/h 2mph /  3.2km/h 67% 0in /  0.0mm 0 W/m2
02:21 60.1 °F /  15.6 °C 49.1 °F /  9.5 °C 30in /  1016.9hPa WNW 2.9mph /  4.7km/h 3mph /  4.8km/h 67% 0in /  0.0mm 0 W/m2
02:26 60.3 °F /  15.7 °C 48.9 °F /  9.4 °C 30in /  1016.6hPa WNW 0.9mph /  1.4km/h 2mph /  3.2km/h 66% 0in /  0.0mm 0 W/m2
02:31 60.3 °F /  15.7 °C 48.9 °F /  9.4 °C 30in /  1016.6hPa WNW 0.9mph /  1.4km/h 4mph /  6.4km/h 66% 0in /  0.0mm 0 W/m2
02:41 60.6 °F /  15.9 °C 48.7 °F /  9.3 °C 30in /  1016.6hPa West 4mph /  6.4km/h 4mph /  6.4km/h 65% 0in /  0.0mm 0 W/m2
02:46 60.8 °F /  16 °C 48.6 °F /  9.2 °C 30in /  1016.6hPa Calm   1mph /  1.6km/h 64% 0in /  0.0mm 0 W/m2
02:51 60.8 °F /  16 °C 48.6 °F /  9.2 °C 30in /  1016.6hPa WNW 0.9mph /  1.4km/h 2mph /  3.2km/h 64% 0in /  0.0mm 0 W/m2
02:56 60.8 °F /  16 °C 48.6 °F /  9.2 °C 30in /  1016.6hPa West 0.9mph /  1.4km/h 3mph /  4.8km/h 64% 0in /  0.0mm 0 W/m2
03:01 60.6 °F /  15.9 °C 48 °F /  8.9 °C 30in /  1016.6hPa West 2mph /  3.2km/h 4mph /  6.4km/h 63% 0in /  0.0mm 0 W/m2
03:06 60.6 °F /  15.9 °C 48 °F /  8.9 °C 30in /  1016.6hPa WSW 0.9mph /  1.4km/h 2mph /  3.2km/h 63% 0in /  0.0mm 0 W/m2
03:11 60.6 °F /  15.9 °C 48 °F /  8.9 °C 30in /  1016.3hPa West 0.9mph /  1.4km/h 2mph /  3.2km/h 63% 0in /  0.0mm 0 W/m2
03:16 60.6 °F /  15.9 °C 48 °F /  8.9 °C 30in /  1016.3hPa West 2mph /  3.2km/h 3mph /  4.8km/h 63% 0in /  0.0mm 0 W/m2
03:22 60.4 °F /  15.8 °C 47.8 °F /  8.8 °C 30in /  1016.3hPa SW 2mph /  3.2km/h 7mph /  11.3km/h 63% 0in /  0.0mm 0 W/m2
03:27 60.4 °F /  15.8 °C 47.8 °F /  8.8 °C 30in /  1016.3hPa NW 0.9mph /  1.4km/h 2mph /  3.2km/h 63% 0in /  0.0mm 0 W/m2
03:32 60.3 °F /  15.7 °C 48.9 °F /  9.4 °C 30in /  1016.3hPa NNW 0.9mph /  1.4km/h 4mph /  6.4km/h 66% 0in /  0.0mm 0 W/m2
03:37 59.5 °F /  15.3 °C 48.2 °F /  9 °C 30in /  1016.3hPa West 6mph /  9.7km/h 6mph /  9.7km/h 66% 0in /  0.0mm 0 W/m2
03:42 59.5 °F /  15.3 °C 48.2 °F /  9 °C 30in /  1016.3hPa West 2mph /  3.2km/h 6mph /  9.7km/h 66% 0in /  0.0mm 0 W/m2
03:47 59.5 °F /  15.3 °C 48.2 °F /  9 °C 30in /  1016.3hPa West 2mph /  3.2km/h 4mph /  6.4km/h 66% 0in /  0.0mm 0 W/m2
03:52 59.5 °F /  15.3 °C 48.2 °F /  9 °C 30in /  1016.3hPa WNW 4mph /  6.4km/h 7mph /  11.3km/h 66% 0in /  0.0mm 0 W/m2
03:57 59.4 °F /  15.2 °C 48 °F /  8.9 °C 30in /  1016.3hPa West 2mph /  3.2km/h 7mph /  11.3km/h 66% 0in /  0.0mm 0 W/m2
04:02 59.2 °F /  15.1 °C 47.8 °F /  8.8 °C 30in /  1016.3hPa WNW 2.9mph /  4.7km/h 5mph /  8km/h 66% 0in /  0.0mm 0 W/m2
04:07 59.2 °F /  15.1 °C 48.2 °F /  9 °C 30in /  1016.3hPa WNW 4mph /  6.4km/h 8mph /  12.9km/h 67% 0in /  0.0mm 0 W/m2
04:12 59 °F /  15 °C 48 °F /  8.9 °C 30in /  1016.3hPa Calm   2mph /  3.2km/h 67% 0in /  0.0mm 0 W/m2
04:17 58.6 °F /  14.8 °C 48.6 °F /  9.2 °C 30in /  1016.3hPa NNW 2.9mph /  4.7km/h 7mph /  11.3km/h 69% 0in /  0.0mm 0 W/m2
04:22 57.7 °F /  14.3 °C 48 °F /  8.9 °C 30in /  1016.3hPa West 2mph /  3.2km/h 3mph /  4.8km/h 70% 0in /  0.0mm 0 W/m2
04:27 56.8 °F /  13.8 °C 48.2 °F /  9 °C 30in /  1016.3hPa WNW 2mph /  3.2km/h 6mph /  9.7km/h 73% 0in /  0.0mm 0 W/m2
04:32 56.3 °F /  13.5 °C 48.2 °F /  9 °C 30in /  1016.3hPa West 2mph /  3.2km/h 2mph /  3.2km/h 74% 0in /  0.0mm 0 W/m2
04:37 55.9 °F /  13.3 °C 48.2 °F /  9 °C 30in /  1016.3hPa West 2mph /  3.2km/h 3mph /  4.8km/h 75% 0in /  0.0mm 0 W/m2
04:42 55.8 °F /  13.2 °C 48 °F /  8.9 °C 30in /  1015.9hPa Calm     75% 0in /  0.0mm 0 W/m2
04:47 55.6 °F /  13.1 °C 48.2 °F /  9 °C 30in /  1015.9hPa West 0.9mph /  1.4km/h 3mph /  4.8km/h 76% 0in /  0.0mm 0 W/m2
04:52 55.2 °F /  12.9 °C 47.8 °F /  8.8 °C 30in /  1015.9hPa Calm   1mph /  1.6km/h 76% 0in /  0.0mm 0 W/m2
04:57 55 °F /  12.8 °C 48 °F /  8.9 °C 30in /  1015.9hPa West 0.9mph /  1.4km/h 2mph /  3.2km/h 77% 0in /  0.0mm 0 W/m2
05:02 55 °F /  12.8 °C 48 °F /  8.9 °C 30in /  1015.9hPa Calm   1mph /  1.6km/h 77% 0in /  0.0mm 0 W/m2
05:07 55 °F /  12.8 °C 48 °F /  8.9 °C 30in /  1015.9hPa Calm   1mph /  1.6km/h 77% 0in /  0.0mm 0 W/m2
05:12 54.9 °F /  12.7 °C 47.8 °F /  8.8 °C 30in /  1015.9hPa Calm     77% 0in /  0.0mm 0 W/m2
05:17 54.7 °F /  12.6 °C 48 °F /  8.9 °C 30in /  1015.9hPa West 0.9mph /  1.4km/h 2mph /  3.2km/h 78% 0in /  0.0mm 0 W/m2
05:22 54.5 °F /  12.5 °C 48.2 °F /  9 °C 30in /  1015.9hPa Calm   1mph /  1.6km/h 79% 0in /  0.0mm 0 W/m2
05:27 54.3 °F /  12.4 °C 48 °F /  8.9 °C 30in /  1015.9hPa West 0.9mph /  1.4km/h 2mph /  3.2km/h 79% 0in /  0.0mm 0 W/m2
05:32 54.1 °F /  12.3 °C 47.8 °F /  8.8 °C 30in /  1015.9hPa Calm     79% 0in /  0.0mm 0 W/m2
05:37 54.1 °F /  12.3 °C 48 °F /  8.9 °C 30in /  1015.9hPa Calm     80% 0in /  0.0mm 0 W/m2
05:42 54 °F /  12.2 °C 48 °F /  8.9 °C 30in /  1015.9hPa Calm     80% 0in /  0.0mm 0 W/m2
05:47 54 °F /  12.2 °C 48 °F /  8.9 °C 30in /  1016.3hPa Calm     80% 0in /  0.0mm 0 W/m2
05:52 54.1 °F /  12.3 °C 48 °F /  8.9 °C 30in /  1015.9hPa Calm     80% 0in /  0.0mm 5 W/m2
05:57 54.1 °F /  12.3 °C 48 °F /  8.9 °C 30in /  1016.3hPa Calm     80% 0in /  0.0mm 5 W/m2
06:02 54.1 °F /  12.3 °C 48.4 °F /  9.1 °C 30in /  1016.3hPa West 0.9mph /  1.4km/h 1mph /  1.6km/h 81% 0in /  0.0mm 7 W/m2
06:07 54.1 °F /  12.3 °C 48.4 °F /  9.1 °C 30in /  1016.3hPa Calm   1mph /  1.6km/h 81% 0in /  0.0mm 11 W/m2
06:12 54.1 °F /  12.3 °C 48.4 °F /  9.1 °C 30in /  1016.3hPa Calm   1mph /  1.6km/h 81% 0in /  0.0mm 14 W/m2
06:17 54.1 °F /  12.3 °C 48.4 °F /  9.1 °C 30in /  1016.3hPa Calm   1mph /  1.6km/h 81% 0in /  0.0mm 16 W/m2
06:22 54.1 °F /  12.3 °C 48.4 °F /  9.1 °C 30in /  1016.3hPa Calm   1mph /  1.6km/h 81% 0in /  0.0mm 21 W/m2
06:27 54.3 °F /  12.4 °C 48.6 °F /  9.2 °C 30in /  1016.3hPa Calm     81% 0in /  0.0mm 25 W/m2
06:32 54.3 °F /  12.4 °C 48.6 °F /  9.2 °C 30in /  1016.3hPa Calm     81% 0in /  0.0mm 32 W/m2
06:37 54.7 °F /  12.6 °C 48.6 °F /  9.2 °C 30in /  1016.3hPa Calm   2mph /  3.2km/h 80% 0in /  0.0mm 37 W/m2
06:42 54.9 °F /  12.7 °C 48.7 °F /  9.3 °C 30in /  1016.3hPa Calm     80% 0in /  0.0mm 39 W/m2
06:47 55 °F /  12.8 °C 48.9 °F /  9.4 °C 30in /  1016.3hPa Calm   2mph /  3.2km/h 80% 0in /  0.0mm 30 W/m2
06:52 55.2 °F /  12.9 °C 49.1 °F /  9.5 °C 30in /  1016.3hPa Calm   3mph /  4.8km/h 80% 0in /  0.0mm 37 W/m2
06:57 55.6 °F /  13.1 °C 49.1 °F /  9.5 °C 30in /  1016.3hPa WNW 2mph /  3.2km/h 3mph /  4.8km/h 79% 0in /  0.0mm 37 W/m2
07:02 56.1 °F /  13.4 °C 49.3 °F /  9.6 °C 30in /  1016.3hPa West 2mph /  3.2km/h 3mph /  4.8km/h 78% 0in /  0.0mm 51 W/m2
07:07 56.5 °F /  13.6 °C 49.3 °F /  9.6 °C 30in /  1016.3hPa WSW 4mph /  6.4km/h 7mph /  11.3km/h 77% 0in /  0.0mm 69 W/m2
07:12 56.8 °F /  13.8 °C 49.6 °F /  9.8 °C 30in /  1016.3hPa WSW 2.9mph /  4.7km/h 6mph /  9.7km/h 77% 0in /  0.0mm 79 W/m2
07:17 57.4 °F /  14.1 °C 49.8 °F /  9.9 °C 30in /  1016.3hPa NW 2.9mph /  4.7km/h 4mph /  6.4km/h 76% 0in /  0.0mm 98 W/m2
07:22 57.6 °F /  14.2 °C 50 °F /  10 °C 30in /  1016.3hPa WNW 2.9mph /  4.7km/h 3mph /  4.8km/h 76% 0in /  0.0mm 97 W/m2
07:27 57.7 °F /  14.3 °C 49.8 °F /  9.9 °C 30in /  1016.3hPa WNW 2.9mph /  4.7km/h 3mph /  4.8km/h 75% 0in /  0.0mm 74 W/m2
07:32 57.9 °F /  14.4 °C 50 °F /  10 °C 30in /  1016.3hPa West 2.9mph /  4.7km/h 4mph /  6.4km/h 75% 0in /  0.0mm 74 W/m2
07:37 57.9 °F /  14.4 °C 50 °F /  10 °C 30in /  1016.3hPa WNW 2.9mph /  4.7km/h 5mph /  8km/h 75% 0in /  0.0mm 86 W/m2
07:42 57.9 °F /  14.4 °C 50 °F /  10 °C 30in /  1016.3hPa West 2.9mph /  4.7km/h 5mph /  8km/h 75% 0in /  0.0mm 102 W/m2
Juneau County Weather
Compliments of Weather Underground - 4 mb